sensor_id;sensor_type;location;lat;lon;timestamp;temperature;humidity
15844;DHT22;50807;52.436;13.346;2023-04-24T00:00:09;16.20;91.20
15844;DHT22;50807;52.436;13.346;2023-04-24T00:00:40;16.20;91.20
15844;DHT22;50807;52.436;13.346;2023-04-24T00:01:12;16.20;91.20
15844;DHT22;50807;52.436;13.346;2023-04-24T00:01:43;16.20;91.20
15844;DHT22;50807;52.436;13.346;2023-04-24T00:02:14;16.20;91.30
15844;DHT22;50807;52.436;13.346;2023-04-24T00:02:45;16.20;91.30
15844;DHT22;50807;52.436;13.346;2023-04-24T00:03:17;16.10;91.20
15844;DHT22;50807;52.436;13.346;2023-04-24T00:03:51;16.10;91.30
15844;DHT22;50807;52.436;13.346;2023-04-24T00:04:23;16.10;91.30
15844;DHT22;50807;52.436;13.346;2023-04-24T00:04:56;16.20;91.40
15844;DHT22;50807;52.436;13.346;2023-04-24T00:05:27;16.10;91.40
15844;DHT22;50807;52.436;13.346;2023-04-24T00:05:58;16.20;91.40
15844;DHT22;50807;52.436;13.346;2023-04-24T00:06:29;16.10;91.40
15844;DHT22;50807;52.436;13.346;2023-04-24T00:07:03;16.10;91.40
15844;DHT22;50807;52.436;13.346;2023-04-24T00:07:37;16.10;91.40
15844;DHT22;50807;52.436;13.346;2023-04-24T00:08:07;16.10;91.40
15844;DHT22;50807;52.436;13.346;2023-04-24T00:08:38;16.20;91.50
15844;DHT22;50807;52.436;13.346;2023-04-24T00:09:09;16.20;91.50
15844;DHT22;50807;52.436;13.346;2023-04-24T00:09:41;16.10;91.50
15844;DHT22;50807;52.436;13.346;2023-04-24T00:10:12;16.10;91.50
15844;DHT22;50807;52.436;13.346;2023-04-24T00:10:43;16.20;91.60
15844;DHT22;50807;52.436;13.346;2023-04-24T00:11:15;16.10;91.60
15844;DHT22;50807;52.436;13.346;2023-04-24T00:11:45;16.10;91.60
15844;DHT22;50807;52.436;13.346;2023-04-24T00:12:16;16.10;91.70
15844;DHT22;50807;52.436;13.346;2023-04-24T00:12:48;16.10;91.70
15844;DHT22;50807;52.436;13.346;2023-04-24T00:13:19;16.10;91.70
15844;DHT22;50807;52.436;13.346;2023-04-24T00:13:50;16.10;91.70
15844;DHT22;50807;52.436;13.346;2023-04-24T00:14:21;16.10;91.80
15844;DHT22;50807;52.436;13.346;2023-04-24T00:14:53;16.10;92.10
15844;DHT22;50807;52.436;13.346;2023-04-24T00:15:24;16.10;91.80
15844;DHT22;50807;52.436;13.346;2023-04-24T00:15:55;16.10;91.80
15844;DHT22;50807;52.436;13.346;2023-04-24T00:16:27;16.10;91.90
15844;DHT22;50807;52.436;13.346;2023-04-24T00:16:58;16.10;91.90
15844;DHT22;50807;52.436;13.346;2023-04-24T00:17:28;16.10;91.90
15844;DHT22;50807;52.436;13.346;2023-04-24T00:18:00;16.10;92.00
15844;DHT22;50807;52.436;13.346;2023-04-24T00:18:31;16.10;92.00
15844;DHT22;50807;52.436;13.346;2023-04-24T00:19:02;16.10;92.00
15844;DHT22;50807;52.436;13.346;2023-04-24T00:19:36;16.10;92.00
15844;DHT22;50807;52.436;13.346;2023-04-24T00:20:07;16.10;92.10
15844;DHT22;50807;52.436;13.346;2023-04-24T00:20:40;16.10;92.10
15844;DHT22;50807;52.436;13.346;2023-04-24T00:21:11;16.10;92.10
15844;DHT22;50807;52.436;13.346;2023-04-24T00:21:42;16.10;92.20
15844;DHT22;50807;52.436;13.346;2023-04-24T00:22:13;16.10;92.20
15844;DHT22;50807;52.436;13.346;2023-04-24T00:22:44;16.10;92.20
15844;DHT22;50807;52.436;13.346;2023-04-24T00:23:16;16.00;92.20
15844;DHT22;50807;52.436;13.346;2023-04-24T00:23:47;16.00;92.20
15844;DHT22;50807;52.436;13.346;2023-04-24T00:24:18;16.10;92.30
15844;DHT22;50807;52.436;13.346;2023-04-24T00:24:49;16.00;92.30
15844;DHT22;50807;52.436;13.346;2023-04-24T00:25:20;16.00;92.30
15844;DHT22;50807;52.436;13.346;2023-04-24T00:25:51;16.00;92.30
15844;DHT22;50807;52.436;13.346;2023-04-24T00:26:23;16.00;92.30
15844;DHT22;50807;52.436;13.346;2023-04-24T00:26:53;16.00;92.40
15844;DHT22;50807;52.436;13.346;2023-04-24T00:27:24;16.10;92.40
15844;DHT22;50807;52.436;13.346;2023-04-24T00:27:55;16.00;92.40
15844;DHT22;50807;52.436;13.346;2023-04-24T00:28:27;16.00;92.50
15844;DHT22;50807;52.436;13.346;2023-04-24T00:28:57;16.00;92.50
15844;DHT22;50807;52.436;13.346;2023-04-24T00:29:28;16.00;92.50
15844;DHT22;50807;52.436;13.346;2023-04-24T00:30:02;16.00;92.50
15844;DHT22;50807;52.436;13.346;2023-04-24T00:30:33;16.00;92.60
15844;DHT22;50807;52.436;13.346;2023-04-24T00:31:04;16.00;92.60
15844;DHT22;50807;52.436;13.346;2023-04-24T00:31:35;16.00;92.60
15844;DHT22;50807;52.436;13.346;2023-04-24T00:32:06;16.00;92.60
15844;DHT22;50807;52.436;13.346;2023-04-24T00:32:37;16.00;92.60
15844;DHT22;50807;52.436;13.346;2023-04-24T00:33:09;16.00;92.70
15844;DHT22;50807;52.436;13.346;2023-04-24T00:33:39;16.00;92.70
15844;DHT22;50807;52.436;13.346;2023-04-24T00:34:10;16.00;92.70
15844;DHT22;50807;52.436;13.346;2023-04-24T00:34:43;16.00;92.80
15844;DHT22;50807;52.436;13.346;2023-04-24T00:35:13;16.00;92.80
15844;DHT22;50807;52.436;13.346;2023-04-24T00:35:44;16.00;92.80
15844;DHT22;50807;52.436;13.346;2023-04-24T00:36:16;16.00;92.80
15844;DHT22;50807;52.436;13.346;2023-04-24T00:36:49;16.00;92.90
15844;DHT22;50807;52.436;13.346;2023-04-24T00:37:22;15.90;92.90
15844;DHT22;50807;52.436;13.346;2023-04-24T00:37:54;16.00;92.90
15844;DHT22;50807;52.436;13.346;2023-04-24T00:38:25;15.90;92.90
15844;DHT22;50807;52.436;13.346;2023-04-24T00:38:55;15.90;92.90
15844;DHT22;50807;52.436;13.346;2023-04-24T00:39:27;16.00;93.00
15844;DHT22;50807;52.436;13.346;2023-04-24T00:39:58;15.90;93.00
15844;DHT22;50807;52.436;13.346;2023-04-24T00:40:29;15.90;93.00
15844;DHT22;50807;52.436;13.346;2023-04-24T00:41:01;15.90;93.00
15844;DHT22;50807;52.436;13.346;2023-04-24T00:41:32;15.90;93.00
15844;DHT22;50807;52.436;13.346;2023-04-24T00:42:03;15.90;93.10
15844;DHT22;50807;52.436;13.346;2023-04-24T00:42:36;15.90;93.10
15844;DHT22;50807;52.436;13.346;2023-04-24T00:43:07;15.90;93.10
15844;DHT22;50807;52.436;13.346;2023-04-24T00:43:38;16.00;93.20
15844;DHT22;50807;52.436;13.346;2023-04-24T00:44:10;15.90;93.20
15844;DHT22;50807;52.436;13.346;2023-04-24T00:44:41;16.00;93.20
15844;DHT22;50807;52.436;13.346;2023-04-24T00:45:13;15.90;93.30
15844;DHT22;50807;52.436;13.346;2023-04-24T00:45:46;15.90;93.30
15844;DHT22;50807;52.436;13.346;2023-04-24T00:46:17;15.90;93.30
15844;DHT22;50807;52.436;13.346;2023-04-24T00:46:48;15.90;93.30
15844;DHT22;50807;52.436;13.346;2023-04-24T00:47:22;15.90;93.30
15844;DHT22;50807;52.436;13.346;2023-04-24T00:47:54;15.90;93.30
15844;DHT22;50807;52.436;13.346;2023-04-24T00:48:25;15.90;93.40
15844;DHT22;50807;52.436;13.346;2023-04-24T00:48:56;15.90;93.50
15844;DHT22;50807;52.436;13.346;2023-04-24T00:49:30;15.90;93.40
15844;DHT22;50807;52.436;13.346;2023-04-24T00:50:02;15.90;93.40
15844;DHT22;50807;52.436;13.346;2023-04-24T00:50:33;15.90;93.40
15844;DHT22;50807;52.436;13.346;2023-04-24T00:51:07;15.90;93.50
15844;DHT22;50807;52.436;13.346;2023-04-24T00:51:38;15.90;93.50
15844;DHT22;50807;52.436;13.346;2023-04-24T00:52:08;15.90;93.50
15844;DHT22;50807;52.436;13.346;2023-04-24T00:52:41;15.90;93.50
15844;DHT22;50807;52.436;13.346;2023-04-24T00:53:11;15.90;93.50
15844;DHT22;50807;52.436;13.346;2023-04-24T00:53:42;15.90;93.50
15844;DHT22;50807;52.436;13.346;2023-04-24T00:54:14;15.90;93.60
15844;DHT22;50807;52.436;13.346;2023-04-24T00:54:45;15.90;93.60
15844;DHT22;50807;52.436;13.346;2023-04-24T00:55:15;15.80;93.60
15844;DHT22;50807;52.436;13.346;2023-04-24T00:55:47;15.80;93.90
15844;DHT22;50807;52.436;13.346;2023-04-24T00:56:19;15.80;93.60
15844;DHT22;50807;52.436;13.346;2023-04-24T00:56:50;15.80;93.70
15844;DHT22;50807;52.436;13.346;2023-04-24T00:57:22;15.90;93.70
15844;DHT22;50807;52.436;13.346;2023-04-24T00:57:54;15.80;93.70
15844;DHT22;50807;52.436;13.346;2023-04-24T00:58:25;15.80;93.70
15844;DHT22;50807;52.436;13.346;2023-04-24T00:58:57;15.80;93.80
15844;DHT22;50807;52.436;13.346;2023-04-24T00:59:29;15.90;93.80
15844;DHT22;50807;52.436;13.346;2023-04-24T01:00:00;15.80;93.80
15844;DHT22;50807;52.436;13.346;2023-04-24T01:00:34;15.80;93.90
15844;DHT22;50807;52.436;13.346;2023-04-24T01:01:06;15.80;93.90
15844;DHT22;50807;52.436;13.346;2023-04-24T01:01:37;15.80;93.90
15844;DHT22;50807;52.436;13.346;2023-04-24T01:02:12;15.80;94.00
15844;DHT22;50807;52.436;13.346;2023-04-24T01:02:44;15.80;94.00
15844;DHT22;50807;52.436;13.346;2023-04-24T01:03:16;15.80;94.00
15844;DHT22;50807;52.436;13.346;2023-04-24T01:03:49;15.80;94.00
15844;DHT22;50807;52.436;13.346;2023-04-24T01:04:22;15.80;94.10
15844;DHT22;50807;52.436;13.346;2023-04-24T01:04:53;15.80;94.10
15844;DHT22;50807;52.436;13.346;2023-04-24T01:05:24;15.80;94.10
15844;DHT22;50807;52.436;13.346;2023-04-24T01:05:56;15.80;94.10
15844;DHT22;50807;52.436;13.346;2023-04-24T01:06:28;15.80;94.10
15844;DHT22;50807;52.436;13.346;2023-04-24T01:07:01;15.80;94.20
15844;DHT22;50807;52.436;13.346;2023-04-24T01:07:33;15.80;94.20
15844;DHT22;50807;52.436;13.346;2023-04-24T01:08:05;15.80;94.20
15844;DHT22;50807;52.436;13.346;2023-04-24T01:08:36;15.80;94.20
15844;DHT22;50807;52.436;13.346;2023-04-24T01:09:10;15.80;94.20
15844;DHT22;50807;52.436;13.346;2023-04-24T01:09:44;15.80;94.20
15844;DHT22;50807;52.436;13.346;2023-04-24T01:10:17;15.80;94.30
15844;DHT22;50807;52.436;13.346;2023-04-24T01:10:52;15.80;94.30
15844;DHT22;50807;52.436;13.346;2023-04-24T01:11:23;15.80;94.30
15844;DHT22;50807;52.436;13.346;2023-04-24T01:11:55;15.80;94.30
15844;DHT22;50807;52.436;13.346;2023-04-24T01:12:26;15.80;94.30
15844;DHT22;50807;52.436;13.346;2023-04-24T01:12:58;15.80;94.40
15844;DHT22;50807;52.436;13.346;2023-04-24T01:13:29;15.80;94.40
15844;DHT22;50807;52.436;13.346;2023-04-24T01:14:02;15.90;94.40
15844;DHT22;50807;52.436;13.346;2023-04-24T01:14:33;15.80;94.40
15844;DHT22;50807;52.436;13.346;2023-04-24T01:15:05;15.80;94.50
15844;DHT22;50807;52.436;13.346;2023-04-24T01:15:39;15.80;94.50
15844;DHT22;50807;52.436;13.346;2023-04-24T01:16:10;15.80;94.60
15844;DHT22;50807;52.436;13.346;2023-04-24T01:16:41;15.80;94.50
15844;DHT22;50807;52.436;13.346;2023-04-24T01:17:13;15.80;94.50
15844;DHT22;50807;52.436;13.346;2023-04-24T01:17:44;15.80;94.60
15844;DHT22;50807;52.436;13.346;2023-04-24T01:18:15;15.80;94.60
15844;DHT22;50807;52.436;13.346;2023-04-24T01:18:47;15.80;94.60
15844;DHT22;50807;52.436;13.346;2023-04-24T01:19:19;15.80;94.60
15844;DHT22;50807;52.436;13.346;2023-04-24T01:19:49;15.80;94.60
15844;DHT22;50807;52.436;13.346;2023-04-24T01:20:24;15.80;94.60
15844;DHT22;50807;52.436;13.346;2023-04-24T01:20:58;15.80;94.70
15844;DHT22;50807;52.436;13.346;2023-04-24T01:21:32;15.80;94.70
15844;DHT22;50807;52.436;13.346;2023-04-24T01:22:10;15.80;94.70
15844;DHT22;50807;52.436;13.346;2023-04-24T01:22:42;15.80;94.70
15844;DHT22;50807;52.436;13.346;2023-04-24T01:23:14;15.80;94.70
15844;DHT22;50807;52.436;13.346;2023-04-24T01:23:45;15.80;94.70
15844;DHT22;50807;52.436;13.346;2023-04-24T01:24:16;15.80;94.70
15844;DHT22;50807;52.436;13.346;2023-04-24T01:24:49;15.80;94.70
15844;DHT22;50807;52.436;13.346;2023-04-24T01:25:20;15.80;94.80
15844;DHT22;50807;52.436;13.346;2023-04-24T01:25:51;15.80;94.80
15844;DHT22;50807;52.436;13.346;2023-04-24T01:26:23;15.80;94.80
15844;DHT22;50807;52.436;13.346;2023-04-24T01:26:55;15.80;94.80
15844;DHT22;50807;52.436;13.346;2023-04-24T01:27:27;15.80;94.80
15844;DHT22;50807;52.436;13.346;2023-04-24T01:27:59;15.80;94.80
15844;DHT22;50807;52.436;13.346;2023-04-24T01:28:30;15.80;94.90
15844;DHT22;50807;52.436;13.346;2023-04-24T01:29:01;15.80;94.90
15844;DHT22;50807;52.436;13.346;2023-04-24T01:29:34;15.80;94.90
15844;DHT22;50807;52.436;13.346;2023-04-24T01:30:06;15.90;94.90
15844;DHT22;50807;52.436;13.346;2023-04-24T01:30:38;15.80;95.00
15844;DHT22;50807;52.436;13.346;2023-04-24T01:31:09;15.80;94.90
15844;DHT22;50807;52.436;13.346;2023-04-24T01:31:40;15.80;95.00
15844;DHT22;50807;52.436;13.346;2023-04-24T01:32:12;15.80;95.00
15844;DHT22;50807;52.436;13.346;2023-04-24T01:32:43;15.80;95.00
15844;DHT22;50807;52.436;13.346;2023-04-24T01:33:15;15.80;95.00
15844;DHT22;50807;52.436;13.346;2023-04-24T01:33:47;15.80;95.00
15844;DHT22;50807;52.436;13.346;2023-04-24T01:34:18;15.80;95.00
15844;DHT22;50807;52.436;13.346;2023-04-24T01:34:50;15.80;95.00
15844;DHT22;50807;52.436;13.346;2023-04-24T01:35:22;15.80;95.00
15844;DHT22;50807;52.436;13.346;2023-04-24T01:35:54;15.80;95.00
15844;DHT22;50807;52.436;13.346;2023-04-24T01:36:27;15.80;95.40
15844;DHT22;50807;52.436;13.346;2023-04-24T01:37:01;15.80;95.10
15844;DHT22;50807;52.436;13.346;2023-04-24T01:37:33;15.80;95.00
15844;DHT22;50807;52.436;13.346;2023-04-24T01:38:04;15.80;95.10
15844;DHT22;50807;52.436;13.346;2023-04-24T01:38:36;15.80;95.10
15844;DHT22;50807;52.436;13.346;2023-04-24T01:39:07;15.80;95.10
15844;DHT22;50807;52.436;13.346;2023-04-24T01:39:38;15.80;95.10
15844;DHT22;50807;52.436;13.346;2023-04-24T01:40:10;15.80;95.10
15844;DHT22;50807;52.436;13.346;2023-04-24T01:40:41;15.80;95.10
15844;DHT22;50807;52.436;13.346;2023-04-24T01:41:12;15.80;95.10
15844;DHT22;50807;52.436;13.346;2023-04-24T01:41:44;15.80;95.20
15844;DHT22;50807;52.436;13.346;2023-04-24T01:42:15;15.80;95.20
15844;DHT22;50807;52.436;13.346;2023-04-24T01:42:47;15.80;95.20
15844;DHT22;50807;52.436;13.346;2023-04-24T01:43:19;15.80;95.20
15844;DHT22;50807;52.436;13.346;2023-04-24T01:43:50;15.80;95.20
15844;DHT22;50807;52.436;13.346;2023-04-24T01:44:21;15.80;95.30
15844;DHT22;50807;52.436;13.346;2023-04-24T01:44:53;15.80;95.30
15844;DHT22;50807;52.436;13.346;2023-04-24T01:45:28;15.80;95.30
15844;DHT22;50807;52.436;13.346;2023-04-24T01:45:58;15.80;95.40
15844;DHT22;50807;52.436;13.346;2023-04-24T01:46:30;15.80;95.40
15844;DHT22;50807;52.436;13.346;2023-04-24T01:47:01;15.80;95.40
15844;DHT22;50807;52.436;13.346;2023-04-24T01:47:32;15.80;95.40
15844;DHT22;50807;52.436;13.346;2023-04-24T01:48:04;15.80;95.40
15844;DHT22;50807;52.436;13.346;2023-04-24T01:48:35;15.80;95.40
15844;DHT22;50807;52.436;13.346;2023-04-24T01:49:06;15.80;95.40
15844;DHT22;50807;52.436;13.346;2023-04-24T01:49:38;15.80;95.50
15844;DHT22;50807;52.436;13.346;2023-04-24T01:50:09;15.80;95.50
15844;DHT22;50807;52.436;13.346;2023-04-24T01:50:40;15.70;95.50
15844;DHT22;50807;52.436;13.346;2023-04-24T01:51:12;15.80;95.50
15844;DHT22;50807;52.436;13.346;2023-04-24T01:51:43;15.70;95.50
15844;DHT22;50807;52.436;13.346;2023-04-24T01:52:14;15.80;95.50
15844;DHT22;50807;52.436;13.346;2023-04-24T01:52:48;15.70;95.80
15844;DHT22;50807;52.436;13.346;2023-04-24T01:53:19;15.70;95.60
15844;DHT22;50807;52.436;13.346;2023-04-24T01:53:50;15.70;95.60
15844;DHT22;50807;52.436;13.346;2023-04-24T01:54:21;15.70;95.60
15844;DHT22;50807;52.436;13.346;2023-04-24T01:54:52;15.80;95.60
15844;DHT22;50807;52.436;13.346;2023-04-24T01:55:23;15.70;95.60
15844;DHT22;50807;52.436;13.346;2023-04-24T01:55:54;15.70;95.60
15844;DHT22;50807;52.436;13.346;2023-04-24T01:56:29;15.70;95.60
15844;DHT22;50807;52.436;13.346;2023-04-24T01:57:00;15.70;95.70
15844;DHT22;50807;52.436;13.346;2023-04-24T01:57:31;15.80;95.70
15844;DHT22;50807;52.436;13.346;2023-04-24T01:58:04;15.80;95.70
15844;DHT22;50807;52.436;13.346;2023-04-24T01:58:35;15.70;95.70
15844;DHT22;50807;52.436;13.346;2023-04-24T01:59:07;15.80;95.80
15844;DHT22;50807;52.436;13.346;2023-04-24T01:59:41;15.80;95.80
15844;DHT22;50807;52.436;13.346;2023-04-24T02:00:12;15.80;95.80
15844;DHT22;50807;52.436;13.346;2023-04-24T02:00:43;15.80;95.80
15844;DHT22;50807;52.436;13.346;2023-04-24T02:01:17;15.80;95.80
15844;DHT22;50807;52.436;13.346;2023-04-24T02:01:48;15.80;95.80
15844;DHT22;50807;52.436;13.346;2023-04-24T02:02:19;15.80;95.80
15844;DHT22;50807;52.436;13.346;2023-04-24T02:02:51;15.80;95.80
15844;DHT22;50807;52.436;13.346;2023-04-24T02:03:23;15.80;95.80
15844;DHT22;50807;52.436;13.346;2023-04-24T02:03:54;15.80;95.90
15844;DHT22;50807;52.436;13.346;2023-04-24T02:04:25;15.80;95.90
15844;DHT22;50807;52.436;13.346;2023-04-24T02:04:55;15.80;95.90
15844;DHT22;50807;52.436;13.346;2023-04-24T02:05:27;15.80;95.90
15844;DHT22;50807;52.436;13.346;2023-04-24T02:05:58;15.80;95.90
15844;DHT22;50807;52.436;13.346;2023-04-24T02:06:29;15.80;96.20
15844;DHT22;50807;52.436;13.346;2023-04-24T02:07:01;15.80;95.90
15844;DHT22;50807;52.436;13.346;2023-04-24T02:07:32;15.80;95.90
15844;DHT22;50807;52.436;13.346;2023-04-24T02:08:04;15.80;95.90
15844;DHT22;50807;52.436;13.346;2023-04-24T02:08:36;15.80;96.00
15844;DHT22;50807;52.436;13.346;2023-04-24T02:09:06;15.80;96.00
15844;DHT22;50807;52.436;13.346;2023-04-24T02:09:38;15.80;96.00
15844;DHT22;50807;52.436;13.346;2023-04-24T02:10:10;15.80;96.00
15844;DHT22;50807;52.436;13.346;2023-04-24T02:10:41;15.80;96.00
15844;DHT22;50807;52.436;13.346;2023-04-24T02:11:12;15.80;96.00
15844;DHT22;50807;52.436;13.346;2023-04-24T02:11:42;15.80;96.00
15844;DHT22;50807;52.436;13.346;2023-04-24T02:12:14;15.80;96.10
15844;DHT22;50807;52.436;13.346;2023-04-24T02:12:45;15.80;96.10
15844;DHT22;50807;52.436;13.346;2023-04-24T02:13:16;15.80;96.10
15844;DHT22;50807;52.436;13.346;2023-04-24T02:13:47;15.70;96.10
15844;DHT22;50807;52.436;13.346;2023-04-24T02:14:18;15.70;96.10
15844;DHT22;50807;52.436;13.346;2023-04-24T02:14:49;15.80;96.10
15844;DHT22;50807;52.436;13.346;2023-04-24T02:15:21;15.70;96.20
15844;DHT22;50807;52.436;13.346;2023-04-24T02:15:51;15.70;96.20
15844;DHT22;50807;52.436;13.346;2023-04-24T02:16:22;15.70;96.20
15844;DHT22;50807;52.436;13.346;2023-04-24T02:16:53;15.70;96.20
15844;DHT22;50807;52.436;13.346;2023-04-24T02:17:25;15.80;96.20
15844;DHT22;50807;52.436;13.346;2023-04-24T02:17:56;15.70;96.20
15844;DHT22;50807;52.436;13.346;2023-04-24T02:18:27;15.80;96.30
15844;DHT22;50807;52.436;13.346;2023-04-24T02:18:58;15.80;96.30
15844;DHT22;50807;52.436;13.346;2023-04-24T02:19:29;15.70;96.30
15844;DHT22;50807;52.436;13.346;2023-04-24T02:20:00;15.70;96.30
15844;DHT22;50807;52.436;13.346;2023-04-24T02:20:33;15.70;96.30
15844;DHT22;50807;52.436;13.346;2023-04-24T02:21:05;15.80;96.40
15844;DHT22;50807;52.436;13.346;2023-04-24T02:21:36;15.80;96.40
15844;DHT22;50807;52.436;13.346;2023-04-24T02:22:08;15.80;96.40
15844;DHT22;50807;52.436;13.346;2023-04-24T02:22:38;15.80;96.40
15844;DHT22;50807;52.436;13.346;2023-04-24T02:23:11;15.80;96.40
15844;DHT22;50807;52.436;13.346;2023-04-24T02:23:43;15.80;96.40
15844;DHT22;50807;52.436;13.346;2023-04-24T02:24:14;15.80;96.40
15844;DHT22;50807;52.436;13.346;2023-04-24T02:24:46;15.80;96.40
15844;DHT22;50807;52.436;13.346;2023-04-24T02:25:17;15.80;96.50
15844;DHT22;50807;52.436;13.346;2023-04-24T02:25:47;15.80;96.50
15844;DHT22;50807;52.436;13.346;2023-04-24T02:26:19;15.80;96.50
15844;DHT22;50807;52.436;13.346;2023-04-24T02:26:50;15.80;96.50
15844;DHT22;50807;52.436;13.346;2023-04-24T02:27:20;15.80;96.50
15844;DHT22;50807;52.436;13.346;2023-04-24T02:27:52;15.80;96.50
15844;DHT22;50807;52.436;13.346;2023-04-24T02:28:23;15.80;96.50
15844;DHT22;50807;52.436;13.346;2023-04-24T02:28:54;15.80;96.50
15844;DHT22;50807;52.436;13.346;2023-04-24T02:29:24;15.80;96.50
15844;DHT22;50807;52.436;13.346;2023-04-24T02:29:56;15.80;96.60
15844;DHT22;50807;52.436;13.346;2023-04-24T02:30:27;15.80;96.60
15844;DHT22;50807;52.436;13.346;2023-04-24T02:30:57;15.80;96.60
15844;DHT22;50807;52.436;13.346;2023-04-24T02:31:29;15.80;96.60
15844;DHT22;50807;52.436;13.346;2023-04-24T02:32:00;15.80;96.60
15844;DHT22;50807;52.436;13.346;2023-04-24T02:32:31;15.80;96.60
15844;DHT22;50807;52.436;13.346;2023-04-24T02:33:02;15.80;96.60
15844;DHT22;50807;52.436;13.346;2023-04-24T02:33:33;15.80;96.60
15844;DHT22;50807;52.436;13.346;2023-04-24T02:34:05;15.80;96.60
15844;DHT22;50807;52.436;13.346;2023-04-24T02:34:36;15.80;96.60
15844;DHT22;50807;52.436;13.346;2023-04-24T02:35:07;15.80;96.60
15844;DHT22;50807;52.436;13.346;2023-04-24T02:35:40;15.80;96.70
15844;DHT22;50807;52.436;13.346;2023-04-24T02:36:10;15.80;96.70
15844;DHT22;50807;52.436;13.346;2023-04-24T02:36:41;15.80;96.70
15844;DHT22;50807;52.436;13.346;2023-04-24T02:37:13;15.80;96.70
15844;DHT22;50807;52.436;13.346;2023-04-24T02:37:43;15.80;96.70
15844;DHT22;50807;52.436;13.346;2023-04-24T02:38:16;15.80;96.70
15844;DHT22;50807;52.436;13.346;2023-04-24T02:38:47;15.80;96.80
15844;DHT22;50807;52.436;13.346;2023-04-24T02:39:18;15.80;96.80
15844;DHT22;50807;52.436;13.346;2023-04-24T02:39:49;15.80;96.70
15844;DHT22;50807;52.436;13.346;2023-04-24T02:40:20;15.80;96.80
15844;DHT22;50807;52.436;13.346;2023-04-24T02:40:51;15.80;96.80
15844;DHT22;50807;52.436;13.346;2023-04-24T02:41:22;15.80;96.80
15844;DHT22;50807;52.436;13.346;2023-04-24T02:41:53;15.80;96.80
15844;DHT22;50807;52.436;13.346;2023-04-24T02:42:25;15.80;96.80
15844;DHT22;50807;52.436;13.346;2023-04-24T02:42:55;15.80;96.80
15844;DHT22;50807;52.436;13.346;2023-04-24T02:43:26;15.80;96.80
15844;DHT22;50807;52.436;13.346;2023-04-24T02:43:57;15.80;96.80
15844;DHT22;50807;52.436;13.346;2023-04-24T02:44:28;15.80;96.90
15844;DHT22;50807;52.436;13.346;2023-04-24T02:44:59;15.80;96.90
15844;DHT22;50807;52.436;13.346;2023-04-24T02:45:30;15.80;96.90
15844;DHT22;50807;52.436;13.346;2023-04-24T02:46:01;15.80;96.90
15844;DHT22;50807;52.436;13.346;2023-04-24T02:46:33;15.80;96.90
15844;DHT22;50807;52.436;13.346;2023-04-24T02:47:03;15.80;96.90
15844;DHT22;50807;52.436;13.346;2023-04-24T02:47:34;15.80;96.90
15844;DHT22;50807;52.436;13.346;2023-04-24T02:48:06;15.80;96.90
15844;DHT22;50807;52.436;13.346;2023-04-24T02:48:37;15.80;96.90
15844;DHT22;50807;52.436;13.346;2023-04-24T02:49:07;15.80;96.90
15844;DHT22;50807;52.436;13.346;2023-04-24T02:49:39;15.80;96.90
15844;DHT22;50807;52.436;13.346;2023-04-24T02:50:10;15.80;96.90
15844;DHT22;50807;52.436;13.346;2023-04-24T02:50:41;15.80;97.00
15844;DHT22;50807;52.436;13.346;2023-04-24T02:51:12;15.80;97.00
15844;DHT22;50807;52.436;13.346;2023-04-24T02:51:43;15.80;97.00
15844;DHT22;50807;52.436;13.346;2023-04-24T02:52:14;15.90;97.00
15844;DHT22;50807;52.436;13.346;2023-04-24T02:52:47;15.90;97.00
15844;DHT22;50807;52.436;13.346;2023-04-24T02:53:19;15.90;97.00
15844;DHT22;50807;52.436;13.346;2023-04-24T02:53:49;15.90;97.10
15844;DHT22;50807;52.436;13.346;2023-04-24T02:54:21;15.90;97.10
15844;DHT22;50807;52.436;13.346;2023-04-24T02:54:52;15.90;97.10
15844;DHT22;50807;52.436;13.346;2023-04-24T02:55:24;15.90;97.10
15844;DHT22;50807;52.436;13.346;2023-04-24T02:55:55;15.90;97.10
15844;DHT22;50807;52.436;13.346;2023-04-24T02:56:26;15.90;97.10
15844;DHT22;50807;52.436;13.346;2023-04-24T02:56:57;15.90;97.10
15844;DHT22;50807;52.436;13.346;2023-04-24T02:57:29;15.90;97.10
15844;DHT22;50807;52.436;13.346;2023-04-24T02:57:59;15.90;97.10
15844;DHT22;50807;52.436;13.346;2023-04-24T02:58:30;15.90;97.10
15844;DHT22;50807;52.436;13.346;2023-04-24T02:59:02;15.90;97.10
15844;DHT22;50807;52.436;13.346;2023-04-24T02:59:33;15.90;97.20
15844;DHT22;50807;52.436;13.346;2023-04-24T03:00:05;15.90;97.20
15844;DHT22;50807;52.436;13.346;2023-04-24T03:00:39;15.90;97.20
15844;DHT22;50807;52.436;13.346;2023-04-24T03:01:10;15.90;97.20
15844;DHT22;50807;52.436;13.346;2023-04-24T03:01:41;15.90;97.20
15844;DHT22;50807;52.436;13.346;2023-04-24T03:02:12;15.90;97.20
15844;DHT22;50807;52.436;13.346;2023-04-24T03:02:43;15.90;97.20
15844;DHT22;50807;52.436;13.346;2023-04-24T03:03:14;15.90;97.20
15844;DHT22;50807;52.436;13.346;2023-04-24T03:03:45;15.90;97.20
15844;DHT22;50807;52.436;13.346;2023-04-24T03:04:17;15.90;97.20
15844;DHT22;50807;52.436;13.346;2023-04-24T03:04:50;15.90;97.20
15844;DHT22;50807;52.436;13.346;2023-04-24T03:05:21;16.00;97.30
15844;DHT22;50807;52.436;13.346;2023-04-24T03:05:53;15.90;97.20
15844;DHT22;50807;52.436;13.346;2023-04-24T03:06:23;16.00;97.30
15844;DHT22;50807;52.436;13.346;2023-04-24T03:06:54;15.90;97.30
15844;DHT22;50807;52.436;13.346;2023-04-24T03:07:26;16.00;97.30
15844;DHT22;50807;52.436;13.346;2023-04-24T03:07:57;16.00;97.30
15844;DHT22;50807;52.436;13.346;2023-04-24T03:08:29;16.00;97.30
15844;DHT22;50807;52.436;13.346;2023-04-24T03:09:01;16.00;97.30
15844;DHT22;50807;52.436;13.346;2023-04-24T03:09:33;16.00;97.30
15844;DHT22;50807;52.436;13.346;2023-04-24T03:10:05;16.00;97.30
15844;DHT22;50807;52.436;13.346;2023-04-24T03:10:38;16.00;97.30
15844;DHT22;50807;52.436;13.346;2023-04-24T03:11:08;16.00;97.30
15844;DHT22;50807;52.436;13.346;2023-04-24T03:11:39;16.00;97.30
15844;DHT22;50807;52.436;13.346;2023-04-24T03:12:11;16.00;97.30
15844;DHT22;50807;52.436;13.346;2023-04-24T03:12:42;16.00;97.30
15844;DHT22;50807;52.436;13.346;2023-04-24T03:13:13;16.00;97.30
15844;DHT22;50807;52.436;13.346;2023-04-24T03:13:44;16.00;97.30
15844;DHT22;50807;52.436;13.346;2023-04-24T03:14:15;16.00;97.30
15844;DHT22;50807;52.436;13.346;2023-04-24T03:14:46;16.00;97.30
15844;DHT22;50807;52.436;13.346;2023-04-24T03:15:17;16.00;97.30
15844;DHT22;50807;52.436;13.346;2023-04-24T03:15:49;16.00;97.30